AirNav   Pilot Hours Calculator
 
 638 users online  

AK39 South Gasline Airport
Sterling, Alaska, USA

GOING TO STERLING?


FAA INFORMATION EFFECTIVE 07 NOVEMBER 2019

Location

FAA Identifier: AK39
Lat/Long: 60-41-49.9110N 150-10-47.8170W
60-41.831850N 150-10.796950W
60.6971975,-150.1799492
(estimated)
Elevation: 381 ft. / 116.1 m (surveyed)
Variation: 25E (1985)
From city: 19 miles NE of STERLING, AK
Time zone: UTC -9 (UTC -8 during Daylight Saving Time)
Zip code: 99572

Airport Operations

Airport use: Private use. Permission required prior to landing
Activation date: 11/1962
Control tower: no
ARTCC: ANCHORAGE CENTER
FSS: KENAI FLIGHT SERVICE STATION [907-283-7211]
Attendance: UNATNDD
Wind indicator: no
Segmented circle: no

Airport Communications

CTAF: 122.9

Nearby radio navigation aids

VOR radial/distance  VOR name  Freq  Var
TEDr175/29.0ANCHORAGE VOR/DME113.1518E
ENAr062/30.3KENAI VOR/DME117.6019E

 
NDB name  Hdg/Dist  Freq  Var  ID
SOLDOTNA042/24.534615EOLT --- .-.. -
CAMPBELL LAKE172/28.733816ECMQ -.-. -- --.-
WILDWOOD064/30.937915EIWW .. .-- .--

Airport Services

Airframe service: NONE
Powerplant service: NONE
Bottled oxygen: NONE
Bulk oxygen: NONE

Runway Information

Runway 2/20

Dimensions: 2500 x 50 ft. / 762 x 15 m
Surface: gravel
RUNWAY 2  RUNWAY 20
Traffic pattern: leftleft
Markings: nonenone
Runway end identifier lights: nono
Obstructions: trees, 200 ft. from runway, 10:1 slope to cleartrees, 200 ft. from runway, 10:1 slope to clear

Airport Ownership and Management from official FAA records

Ownership: Privately-owned
Owner: ALASKA PIPELINE CO
3000 SPENARD RD
ANCHORAGE, AK 99503
Phone 907-277-5551
Manager: ROBIN BARRY
46225 KENAI SPUR HWY
SOLDOTNA, AK 99669
Phone (907) 714-7514

Airport Operational Statistics

Aircraft operations: 50/year *
100% transient general aviation
* for 12-month period ending 25 June 1977

Additional Remarks

LOOSE ROCK ON RY; ROUGH & NOT MAINTAINED; LCTD ON PIPELINE RUNNING FM KENAI PENNINSULA TO ANCHORAGE.
RWY WI NATL MOOSE RANGE; LNDG NOT PERMITTED EXCPT EMERG.
SEE NATIONAL WILDLIFE REFUGE NOTICES.

Instrument Procedures

There are no published instrument procedures at AK39.

Some nearby airports with instrument procedures:

PASX - Soldotna Airport (29 nm SW)
PANC - Ted Stevens Anchorage International Airport (29 nm N)
PAEN - Kenai Municipal Airport (32 nm W)
PAMR - Merrill Field Airport (32 nm N)
PAED - Elmendorf Air Force Base (35 nm N)
 
Loc | Ops | Rwys | IFR | FBO | Links
Com | Nav | Svcs | Stats | Notes

Crowley
 
Area around AK39 (South Gasline Airport)
 
Road maps at: MapQuest Bing Google
 
Aerial photo
No photo
 
Sectional chart

 
Airport distance calculator
Flying to South Gasline Airport? Find the distance to fly.

From to AK39

Sunrise and sunset
Times for 17-Nov-2019
 Local
(UTC-9)
 Zulu
(UTC)
Morning civil twilight08:1917:19
Sunrise09:1018:10
Sunset16:2201:22
Evening civil twilight17:1302:13

Current date and time
Zulu (UTC)  17-Nov-2019 12:22:14
Local (UTC-9)  17-Nov-2019 03:22:14
 
METAR
PASX 
28nm SW 
171156Z AUTO 14004KT 10SM CLR M02/M03 A2925 RMK AO2 SLP913 60000 70001 T10221028 11006 21028 51009 FZRANO
PANC 
29nm N 
171153Z 20011KT 3SM BKN050 02/M02 A2921 RMK AO2 PK WND 18027/1143 SFC VIS 10 RAE47SNE47 SLP892 4/007 P0000 60008 70058 T00221017 10028 20011 51014 $
PALH 
30nm N 
171153Z 21010G17KT 3SM BKN050 02/M03 A2923 RMK AO2 SFC VIS 10 SLP898 60002 70026 I6000 T00171028 10017 20000 51016
PAEN 
32nm W 
171153Z AUTO 16004KT 10SM CLR M02/M04 A2922 RMK AO2 SLP897 70002 I6000 T10221039 10006 21022 51010 TSNO
PAMR 
33nm N 
171153Z 18006KT 3SM BR BKN006 OVC047 01/M02 A2922 RMK AO2 SLP895 SNE35 P0000 60009 70058 T00061022 10011 20000 51016 $
PAED 
35nm N 
171156Z 17006KT 10SM BKN030 OVC038 01/M01 A2921 RMK AO2A SLP889 P0001 60005 70007 T00061010 10007 20000 52016 $
PAFR 
37nm NE 
171158Z AUTO 19010KT 10SM OVC025 00/M01 A2918 RMK AO2 OVC V BKN SLP890 P0001 60011 70044 T00011014 10003 21004 52016 $
PATO 
39nm E 
171153Z AUTO 30006KT 10SM BKN045 01/M01 A2921 RMK AO2 SLP890 70042 T00061006 10011 20000 53020 TSNO $
PAWD 
41nm SE 
171153Z AUTO 36012KT 10SM CLR 01/M04 A2922 RMK AO2 SLP896 70011 T00111039 10028 20006 53019 TSNO
PABV 
47nm NE 
171156Z AUTO 20008KT 10SM FEW027 BKN035 OVC060 01/00 A2922 RMK AO2 RAE1059 SLP903 P0000 60007 70041 T00060000 10006 21006 51009 FZRANO
TAF
PANC 
29nm N 
171140Z 1712/1818 19009KT P6SM SCT009 OVC045 FM180000 24005KT 4SM -SN BR SCT015 OVC025 FM180800 16005KT 4SM BR OVC015
PAEN 
32nm W 
171140Z 1712/1812 16006KT P6SM FEW007 FM180000 19005KT P6SM FEW012 BKN050
PAED 
35nm N 
171152Z 1711/1817 16006KT 9999 FEW020 BKN030 QNH2915INS BECMG 1715/1716 VRB06KT 9999 SCT020 QNH2924INS BECMG 1806/1807 VRB06KT 9999 FEW030 QNH2936INS TX02/1803Z TNM05/1716Z
NOTAMs
Click for the latest NOTAMs
NOTAMs are issued by the DoD/FAA and will open in a separate window not controlled by AirNav.

 

 
 

Would you like to see your business listed on this page?

 If your business provides an interesting product or service to pilots, flight crews, aircraft, or users of the South Gasline Airport, you should consider listing it here.  To start the listing process, click on the button below
 
Add a business
 

Other Pages about South Gasline Airport

Update a link
 
Copyright © AirNav, LLC. All rights reserved. Privacy Policy  Contact